createdAt,value
2023-09-15T00:01:17.638Z,97574.60
2023-09-15T00:04:37.386Z,97581.20
2023-09-15T00:08:11.268Z,97579.60
2023-09-15T00:12:00.893Z,97576.60
2023-09-15T00:15:29.216Z,97578.80
2023-09-15T00:19:02.675Z,97573.80
2023-09-15T00:22:36.038Z,97572.40
2023-09-15T00:26:00.695Z,97574.80
2023-09-15T00:29:32.308Z,97576.60
2023-09-15T00:33:16.566Z,97573.20
2023-09-15T00:36:55.769Z,97577.40
2023-09-15T00:40:33.500Z,97578.60
2023-09-15T00:44:12.301Z,97578.20
2023-09-15T00:47:43.427Z,97581.80
2023-09-15T00:51:21.329Z,97583.80
2023-09-15T00:55:07.701Z,97587.00
2023-09-15T00:58:38.109Z,97590.20
2023-09-15T01:02:04.691Z,97596.60
2023-09-15T01:05:43.607Z,97597.80
2023-09-15T01:09:21.375Z,97595.40
2023-09-15T01:12:31.769Z,97599.60
2023-09-15T01:16:14.142Z,97595.40
2023-09-15T01:20:01.410Z,97600.80
2023-09-15T01:23:52.669Z,97598.80
2023-09-15T01:27:34.820Z,97601.00
2023-09-15T01:31:22.987Z,97600.00
2023-09-15T01:35:06.834Z,97599.40
2023-09-15T01:38:54.619Z,97600.00
2023-09-15T01:42:24.996Z,97608.40
2023-09-15T01:46:02.654Z,97614.20
2023-09-15T01:49:43.144Z,97607.40
2023-09-15T01:53:05.313Z,97608.80
2023-09-15T01:56:51.716Z,97607.20
2023-09-15T02:00:39.330Z,97601.20
2023-09-15T02:04:17.070Z,97600.60
2023-09-15T02:07:47.415Z,97594.40
2023-09-15T02:11:35.232Z,97600.40
2023-09-15T02:14:57.091Z,97599.40
2023-09-15T02:18:45.098Z,97603.20
2023-09-15T02:22:33.394Z,97603.20
2023-09-15T02:26:21.087Z,97596.20
2023-09-15T02:30:08.594Z,97599.20
2023-09-15T02:33:56.575Z,97607.00
2023-09-15T02:37:17.315Z,97603.80
2023-09-15T02:40:53.896Z,97605.00
2023-09-15T02:44:33.257Z,97607.60
2023-09-15T02:48:10.346Z,97610.60
2023-09-15T02:51:51.639Z,97607.40
2023-09-15T02:55:28.481Z,97604.80
2023-09-15T02:58:57.047Z,97610.20
2023-09-15T03:02:28.021Z,97617.00
2023-09-15T03:05:55.703Z,97624.40
2023-09-15T03:09:43.556Z,97623.60
2023-09-15T03:13:31.101Z,97626.60
2023-09-15T03:17:19.260Z,97635.80
2023-09-15T03:20:46.381Z,97637.20
2023-09-15T03:24:23.718Z,97634.80
2023-09-15T03:28:03.127Z,97638.60
2023-09-15T03:31:40.158Z,97645.60
2023-09-15T03:35:16.752Z,97646.40
2023-09-15T03:39:04.594Z,97648.40
2023-09-15T03:42:23.705Z,97654.80
2023-09-15T03:46:00.554Z,97659.00
2023-09-15T03:49:31.867Z,97655.80
2023-09-15T03:53:04.063Z,97652.20
2023-09-15T03:56:24.261Z,97657.40
2023-09-15T04:00:01.243Z,97659.60
2023-09-15T04:03:39.704Z,97672.40
2023-09-15T04:07:27.752Z,97671.40
2023-09-15T04:10:45.319Z,97678.00
2023-09-15T04:14:33.276Z,97672.40
2023-09-15T04:18:08.951Z,97676.20
2023-09-15T04:21:56.688Z,97678.80
2023-09-15T04:25:24.398Z,97678.20
2023-09-15T04:29:12.296Z,97678.00
2023-09-15T04:32:42.856Z,97681.60
2023-09-15T04:36:23.719Z,97687.60
2023-09-15T04:39:35.930Z,97686.20
2023-09-15T04:43:23.620Z,97685.20
2023-09-15T04:47:11.396Z,97685.40
2023-09-15T04:50:58.966Z,97682.80
2023-09-15T04:54:35.976Z,97685.60
2023-09-15T04:58:16.708Z,97686.60
2023-09-15T05:01:47.388Z,97684.80
2023-09-15T05:05:14.095Z,97685.20
2023-09-15T05:09:02.084Z,97680.40
2023-09-15T05:12:20.977Z,97679.80
2023-09-15T05:15:46.651Z,97684.20
2023-09-15T05:19:16.970Z,97684.80
2023-09-15T05:22:29.798Z,97683.00
2023-09-15T05:26:00.089Z,97685.60
2023-09-15T05:29:47.934Z,97692.40
2023-09-15T05:33:34.496Z,97694.60
2023-09-15T05:36:55.049Z,97693.80
2023-09-15T05:40:42.823Z,97688.60
2023-09-15T05:44:22.282Z,97691.40
2023-09-15T05:47:53.016Z,97698.80
2023-09-15T05:51:23.377Z,97708.20
2023-09-15T05:55:00.563Z,97716.20
2023-09-15T05:58:48.606Z,97716.80
2023-09-15T06:02:26.529Z,97715.80
2023-09-15T06:06:04.795Z,97717.20
2023-09-15T06:09:52.497Z,97717.00
2023-09-15T06:13:20.152Z,97726.20
2023-09-15T06:17:00.130Z,97729.40
2023-09-15T06:20:39.465Z,97731.80
2023-09-15T06:24:27.184Z,97732.40
2023-09-15T06:28:19.190Z,97732.00
2023-09-15T06:31:42.902Z,97735.80
2023-09-15T06:35:30.775Z,97741.80
2023-09-15T06:39:18.353Z,97739.20
2023-09-15T06:42:55.045Z,97744.20
2023-09-15T06:45:58.884Z,97743.60
2023-09-15T06:49:19.550Z,97748.00
2023-09-15T06:52:32.604Z,97750.00
2023-09-15T06:56:09.132Z,97756.20
2023-09-15T06:59:45.837Z,97756.40
2023-09-15T07:03:22.364Z,97758.00
2023-09-15T07:07:08.912Z,97760.00
2023-09-15T07:10:19.025Z,97763.80
2023-09-15T07:13:31.353Z,97761.20
2023-09-15T07:16:21.842Z,97759.40
2023-09-15T07:19:55.121Z,97767.60
2023-09-15T07:23:03.590Z,97773.00
2023-09-15T07:26:00.900Z,97774.20
2023-09-15T07:28:37.051Z,97773.00
2023-09-15T07:31:52.151Z,97775.00
2023-09-15T07:35:12.524Z,97775.80
2023-09-15T07:38:26.649Z,97772.20
2023-09-15T07:41:40.179Z,97775.80
2023-09-15T07:45:04.029Z,97780.20
2023-09-15T07:48:13.531Z,97783.40
2023-09-15T07:51:04.269Z,97782.20
2023-09-15T07:54:11.668Z,97784.20
2023-09-15T07:57:06.982Z,97781.20
2023-09-15T08:00:34.890Z,97781.80
2023-09-15T08:03:42.531Z,97781.80
2023-09-15T08:06:25.094Z,97783.80
2023-09-15T08:09:28.062Z,97786.00
2023-09-15T08:12:19.219Z,97785.60
2023-09-15T08:15:05.589Z,97784.20
2023-09-15T08:18:10.904Z,97784.80
2023-09-15T08:21:00.832Z,97782.40
2023-09-15T08:23:57.186Z,97784.20
2023-09-15T08:26:44.608Z,97782.40
2023-09-15T08:29:37.572Z,97782.80
2023-09-15T08:32:29.265Z,97783.60
2023-09-15T08:35:29.580Z,97783.60
2023-09-15T08:38:24.386Z,97785.00
2023-09-15T08:41:25.782Z,97782.20
2023-09-15T08:44:17.273Z,97776.80
2023-09-15T08:46:56.804Z,97777.80
2023-09-15T08:49:49.410Z,97776.00
2023-09-15T08:52:29.418Z,97774.20
2023-09-15T08:55:15.953Z,97775.20
2023-09-15T08:58:06.861Z,97773.80
2023-09-15T09:00:58.992Z,97774.80
2023-09-15T09:03:42.989Z,97771.00
2023-09-15T09:06:26.644Z,97769.00
2023-09-15T09:08:59.119Z,97771.20
2023-09-15T09:11:37.950Z,97770.60
2023-09-15T09:14:16.183Z,97772.40
2023-09-15T09:17:00.063Z,97773.60
2023-09-15T09:19:59.009Z,97776.20
2023-09-15T09:22:40.581Z,97773.80
2023-09-15T09:25:34.585Z,97771.00
2023-09-15T09:28:22.903Z,97771.60
2023-09-15T09:30:58.691Z,97771.00
2023-09-15T09:33:34.131Z,97772.80
2023-09-15T09:36:33.142Z,97772.00
2023-09-15T09:39:07.231Z,97777.40
2023-09-15T09:41:43.415Z,97779.00
2023-09-15T09:44:31.531Z,97781.40
2023-09-15T09:47:04.265Z,97777.20
2023-09-15T09:49:45.442Z,97781.40
2023-09-15T09:52:36.317Z,97783.00
2023-09-15T09:55:19.728Z,97779.60
2023-09-15T09:58:05.245Z,97776.20
2023-09-15T10:00:40.872Z,97778.40
2023-09-15T10:03:16.329Z,97774.80
2023-09-15T10:06:21.263Z,97779.60
2023-09-15T10:09:19.920Z,97779.60
2023-09-15T10:12:17.044Z,97781.00
2023-09-15T10:15:54.530Z,97778.60
2023-09-15T10:18:56.946Z,97779.20
2023-09-15T10:22:04.983Z,97781.60
2023-09-15T10:24:44.155Z,97780.80
2023-09-15T10:27:11.993Z,97779.40
2023-09-15T10:30:22.621Z,97775.80
2023-09-15T10:33:51.685Z,97775.20
2023-09-15T10:36:22.138Z,97776.60
2023-09-15T10:38:52.523Z,97773.00
2023-09-15T10:42:31.599Z,97772.40
2023-09-15T10:45:28.108Z,97771.00
2023-09-15T10:48:18.313Z,97770.20
2023-09-15T10:50:54.530Z,97769.80
2023-09-15T10:53:32.609Z,97766.60
2023-09-15T10:56:04.792Z,97765.20
2023-09-15T10:58:47.640Z,97763.40
2023-09-15T11:01:37.978Z,97765.80
2023-09-15T11:04:11.125Z,97763.00
2023-09-15T11:06:44.445Z,97760.00
2023-09-15T11:09:35.663Z,97757.60
2023-09-15T11:12:15.981Z,97762.40
2023-09-15T11:15:16.525Z,97761.40
2023-09-15T11:17:56.288Z,97755.40
2023-09-15T11:20:43.021Z,97759.40
2023-09-15T11:23:33.873Z,97757.20
2023-09-15T11:26:16.864Z,97750.80
2023-09-15T11:29:12.428Z,97756.40
2023-09-15T11:31:48.061Z,97764.20
2023-09-15T11:34:31.814Z,97758.80
2023-09-15T11:37:03.037Z,97761.40
2023-09-15T11:39:55.024Z,97765.00
2023-09-15T11:42:40.633Z,97757.20
2023-09-15T11:45:23.644Z,97759.80
2023-09-15T11:48:21.498Z,97757.00
2023-09-15T11:51:09.930Z,97748.60
2023-09-15T11:54:40.595Z,97742.60
2023-09-15T11:57:33.695Z,97741.20
2023-09-15T12:00:07.462Z,97734.40
2023-09-15T12:02:59.948Z,97731.20
2023-09-15T12:05:40.957Z,97732.00
2023-09-15T12:08:24.075Z,97736.20
2023-09-15T12:11:11.608Z,97736.60
2023-09-15T12:13:52.478Z,97735.80
2023-09-15T12:16:32.258Z,97739.80
2023-09-15T12:19:07.681Z,97738.80
2023-09-15T12:21:56.012Z,97738.40
2023-09-15T12:24:26.164Z,97735.20
2023-09-15T12:27:01.576Z,97731.60
2023-09-15T12:29:31.612Z,97726.20
2023-09-15T12:32:08.130Z,97724.80
2023-09-15T12:34:48.506Z,97722.80
2023-09-15T12:37:20.401Z,97721.80
2023-09-15T12:39:51.944Z,97722.00
2023-09-15T12:42:33.737Z,97718.00
2023-09-15T12:45:01.089Z,97720.20
2023-09-15T12:47:48.949Z,97717.40
2023-09-15T12:50:40.313Z,97720.40
2023-09-15T12:53:21.314Z,97723.00
2023-09-15T12:56:20.085Z,97723.80
2023-09-15T12:59:10.177Z,97721.00
2023-09-15T13:01:47.879Z,97718.80
2023-09-15T13:04:17.792Z,97716.40
2023-09-15T13:06:45.365Z,97716.60
2023-09-15T13:09:18.213Z,97720.00
2023-09-15T13:11:58.474Z,97719.20
2023-09-15T13:14:37.886Z,97717.80
2023-09-15T13:17:08.275Z,97717.40
2023-09-15T13:19:38.281Z,97717.00
2023-09-15T13:22:11.058Z,97714.00
2023-09-15T13:24:41.598Z,97713.80
2023-09-15T13:27:17.787Z,97713.20
2023-09-15T13:29:47.867Z,97709.00
2023-09-15T13:32:15.288Z,97713.80
2023-09-15T13:34:45.136Z,97707.20
2023-09-15T13:37:21.503Z,97704.40
2023-09-15T13:39:50.934Z,97698.80
2023-09-15T13:42:32.387Z,97701.20
2023-09-15T13:45:03.683Z,97699.20
2023-09-15T13:48:11.604Z,97698.40
2023-09-15T13:50:42.213Z,97694.40
2023-09-15T13:53:12.487Z,97692.00
2023-09-15T13:55:48.901Z,97688.20
2023-09-15T13:58:18.944Z,97689.40
2023-09-15T14:01:15.000Z,97683.20
2023-09-15T14:03:45.058Z,97683.80
2023-09-15T14:06:40.939Z,97693.80
2023-09-15T14:09:27.960Z,97697.00
2023-09-15T14:12:18.211Z,97700.80
2023-09-15T14:14:54.516Z,97701.20
2023-09-15T14:17:26.461Z,97699.80
2023-09-15T14:19:56.464Z,97692.80
2023-09-15T14:22:30.302Z,97684.40
2023-09-15T14:24:59.866Z,97686.60
2023-09-15T14:27:42.382Z,97684.60
2023-09-15T14:30:18.164Z,97684.80
2023-09-15T14:32:48.366Z,97689.00
2023-09-15T14:35:39.076Z,97685.00
2023-09-15T14:38:12.269Z,97681.60
2023-09-15T14:40:40.155Z,97683.20
2023-09-15T14:43:18.944Z,97687.20
2023-09-15T14:46:02.662Z,97691.40
2023-09-15T14:48:51.442Z,97694.80
2023-09-15T14:51:32.855Z,97703.00
2023-09-15T14:54:09.279Z,97706.40
2023-09-15T14:56:52.871Z,97719.40
2023-09-15T14:59:51.418Z,97720.60
2023-09-15T15:02:37.170Z,97717.80
2023-09-15T15:05:18.329Z,97714.80
2023-09-15T15:08:16.827Z,97712.40
2023-09-15T15:11:05.929Z,97718.80
2023-09-15T15:13:56.834Z,97716.40
2023-09-15T15:16:56.730Z,97721.60
2023-09-15T15:19:43.058Z,97732.00
2023-09-15T15:22:20.287Z,97737.40
2023-09-15T15:25:21.586Z,97743.20
2023-09-15T15:28:10.439Z,97750.00
2023-09-15T15:31:06.630Z,97761.00
2023-09-15T15:33:57.535Z,97777.80
2023-09-15T15:36:45.019Z,97795.40
2023-09-15T15:39:29.113Z,97827.20
2023-09-15T15:42:37.459Z,97851.40
2023-09-15T15:45:36.642Z,97860.20
2023-09-15T15:48:48.173Z,97863.20
2023-09-15T15:52:05.899Z,97863.60
2023-09-15T15:55:52.602Z,97861.40
2023-09-15T15:59:21.886Z,97845.00
2023-09-15T16:02:41.307Z,97838.60
2023-09-15T16:05:54.378Z,97848.20
2023-09-15T16:09:31.170Z,97842.80
2023-09-15T16:13:06.473Z,97840.40
2023-09-15T16:16:43.413Z,97837.20
2023-09-15T16:19:54.852Z,97830.60
2023-09-15T16:22:46.623Z,97826.80
2023-09-15T16:26:00.885Z,97821.60
2023-09-15T16:29:17.896Z,97821.80
2023-09-15T16:32:28.179Z,97826.00
2023-09-15T16:36:05.979Z,97833.00
2023-09-15T16:39:35.387Z,97837.40
2023-09-15T16:42:38.289Z,97844.40
2023-09-15T16:45:51.485Z,97848.20
2023-09-15T16:48:44.706Z,97852.20
2023-09-15T16:52:03.665Z,97851.60
2023-09-15T16:55:10.031Z,97858.40
2023-09-15T16:58:22.857Z,97860.00
2023-09-15T17:01:38.938Z,97863.40
2023-09-15T17:05:06.951Z,97875.40
2023-09-15T17:08:21.588Z,97877.20
2023-09-15T17:11:12.027Z,97879.80
2023-09-15T17:14:22.003Z,97869.00
2023-09-15T17:17:44.755Z,97872.40
2023-09-15T17:20:59.246Z,97877.60
2023-09-15T17:24:27.323Z,97883.60
2023-09-15T17:27:32.848Z,97882.40
2023-09-15T17:30:59.448Z,97883.60
2023-09-15T17:34:37.379Z,97888.40
2023-09-15T17:38:10.646Z,97895.60
2023-09-15T17:41:28.055Z,97894.80
2023-09-15T17:45:03.749Z,97897.40
2023-09-15T17:48:06.545Z,97901.60
2023-09-15T17:51:44.321Z,97901.00
2023-09-15T17:55:22.276Z,97897.40
2023-09-15T17:59:10.150Z,97900.80
2023-09-15T18:02:59.943Z,97898.20
2023-09-15T18:06:48.449Z,97892.60
2023-09-15T18:10:36.014Z,97901.20
2023-09-15T18:13:58.923Z,97900.40
2023-09-15T18:17:46.915Z,97900.40
2023-09-15T18:21:34.542Z,97900.40
2023-09-15T18:25:17.689Z,97898.20
2023-09-15T18:29:05.761Z,97899.20
2023-09-15T18:32:53.320Z,97906.20
2023-09-15T18:36:29.295Z,97907.80
2023-09-15T18:40:17.005Z,97915.80
2023-09-15T18:44:03.693Z,97917.20
2023-09-15T18:47:22.533Z,97917.80
2023-09-15T18:50:45.869Z,97919.40
2023-09-15T18:54:33.488Z,97915.80
2023-09-15T18:58:14.920Z,97911.20
2023-09-15T19:01:52.961Z,97911.40
2023-09-15T19:05:32.545Z,97919.20
2023-09-15T19:09:08.215Z,97916.00
2023-09-15T19:12:19.101Z,97918.80
2023-09-15T19:16:03.409Z,97918.00
2023-09-15T19:19:34.249Z,97919.00
2023-09-15T19:23:12.206Z,97914.20
2023-09-15T19:26:58.563Z,97909.40
2023-09-15T19:30:46.272Z,97913.20
2023-09-15T19:34:14.158Z,97908.40
2023-09-15T19:37:41.849Z,97910.60
2023-09-15T19:41:09.379Z,97908.40
2023-09-15T19:44:27.035Z,97909.00
2023-09-15T19:48:10.216Z,97910.40
2023-09-15T19:51:57.487Z,97910.60
2023-09-15T19:55:46.159Z,97910.80
2023-09-15T19:59:24.104Z,97914.60
2023-09-15T20:02:44.022Z,97917.00
2023-09-15T20:06:24.196Z,97918.60
2023-09-15T20:09:47.325Z,97923.40
2023-09-15T20:13:31.649Z,97924.60
2023-09-15T20:17:05.860Z,97925.80
2023-09-15T20:20:47.000Z,97926.00
2023-09-15T20:24:25.296Z,97920.40
2023-09-15T20:28:15.474Z,97930.00
2023-09-15T20:31:54.106Z,97932.20
2023-09-15T20:35:24.725Z,97930.60
2023-09-15T20:39:00.596Z,97932.40
2023-09-15T20:42:08.337Z,97932.80
2023-09-15T20:45:18.779Z,97935.20
2023-09-15T20:48:48.808Z,97936.00
2023-09-15T20:52:05.694Z,97937.60
2023-09-15T20:55:25.580Z,97944.60
2023-09-15T20:58:39.052Z,97946.00
2023-09-15T21:01:54.813Z,97952.60
2023-09-15T21:05:18.733Z,97953.20
2023-09-15T21:09:06.518Z,97955.20
2023-09-15T21:12:54.254Z,97951.80
2023-09-15T21:16:40.978Z,97956.80
2023-09-15T21:19:51.398Z,97961.60
2023-09-15T21:22:54.365Z,97959.00
2023-09-15T21:26:16.894Z,97960.20
2023-09-15T21:29:45.331Z,97956.20
2023-09-15T21:33:21.940Z,97957.80
2023-09-15T21:36:47.204Z,97957.00
2023-09-15T21:40:17.516Z,97951.40
2023-09-15T21:43:29.676Z,97958.80
2023-09-15T21:47:06.316Z,97956.80
2023-09-15T21:50:54.028Z,97963.60
2023-09-15T21:54:24.239Z,97962.60
2023-09-15T21:58:12.284Z,97953.80
2023-09-15T22:01:47.792Z,97960.20
2023-09-15T22:05:17.988Z,97961.00
2023-09-15T22:08:56.980Z,97958.80
2023-09-15T22:12:43.980Z,97961.80
2023-09-15T22:16:14.568Z,97964.80
2023-09-15T22:20:01.259Z,97967.80
2023-09-15T22:23:48.813Z,97973.20
2023-09-15T22:27:14.148Z,97970.00
2023-09-15T22:30:50.749Z,97967.60
2023-09-15T22:34:16.525Z,97970.60
2023-09-15T22:38:00.613Z,97969.40
2023-09-15T22:41:33.085Z,97968.40
2023-09-15T22:45:04.075Z,97972.20
2023-09-15T22:48:27.685Z,97975.00
2023-09-15T22:51:49.948Z,97972.40
2023-09-15T22:55:40.521Z,97965.80
2023-09-15T22:59:07.861Z,97966.80
2023-09-15T23:02:35.627Z,97961.60
2023-09-15T23:06:23.474Z,97962.40
2023-09-15T23:09:42.634Z,97963.40
2023-09-15T23:13:23.316Z,97961.60
2023-09-15T23:16:50.994Z,97959.00
2023-09-15T23:19:59.943Z,97956.80
2023-09-15T23:23:47.442Z,97952.60
2023-09-15T23:27:25.387Z,97952.80
2023-09-15T23:30:42.976Z,97956.80
2023-09-15T23:34:06.021Z,97958.80
2023-09-15T23:37:25.424Z,97958.60
2023-09-15T23:40:56.337Z,97960.00
2023-09-15T23:44:12.580Z,97964.60
2023-09-15T23:48:00.206Z,97965.40
2023-09-15T23:51:27.992Z,97968.40
2023-09-15T23:55:15.668Z,97962.80
2023-09-15T23:59:03.267Z,97965.80
